Time;durP1;ratioP1;P1;durP2;ratioP2;P2;SDS_P1;SDS_P2;PMS_P1;PMS_P2;Temp;Humidity;BMP_temperature;BMP_pressure;BME280_temperature;BME280_humidity;BME280_pressure;Samples;Min_cycle;Max_cycle;Signal;HPM_P1;HPM_P2
2021/01/30 00:42:29;;;;;;;74.65;53.40;;;180.10;2252.80;;;;;;5147334;24;20067;-79
2021/01/30 00:45:59;;;;;;;87.75;64.75;;;180.10;2252.80;;;;;;4815621;29;20506;-81
2021/01/30 00:49:29;;;;;;;69.75;47.55;;;180.00;2252.80;;;;;;4795786;29;20109;-79
2021/01/30 00:52:33;;;;;;;120.10;75.05;;;180.00;2252.80;;;;;;4723486;30;20113;-79
2021/01/30 00:55:59;;;;;;;96.97;65.43;;;180.00;2252.80;;;;;;4690304;30;20064;-78
2021/01/30 00:59:05;;;;;;;64.43;48.58;;;180.00;2252.80;;;;;;4658288;30;20094;-79
2021/01/30 01:02:35;;;;;;;56.22;43.40;;;180.00;2252.80;;;;;;4669302;30;20048;-80
2021/01/30 01:06:27;;;;;;;57.50;43.55;;;180.00;2252.80;;;;;;4594530;31;20025;-79
2021/01/30 02:08:45;;;;;;;38.92;29.13;;;179.80;2252.80;;;;;;5866853;24;20041;31
2021/01/30 02:12:39;;;;;;;42.58;28.50;;;179.80;2252.80;;;;;;4769381;29;20050;-80
2021/01/30 02:15:46;;;;;;;41.92;31.55;;;179.70;2252.80;;;;;;4777125;29;20062;-80
2021/01/30 02:19:08;;;;;;;41.80;29.80;;;179.70;2252.80;;;;;;4785912;30;20039;-79
2021/01/30 02:22:06;;;;;;;43.45;30.88;;;179.60;2252.80;;;;;;4759655;30;20028;-79
2021/01/30 02:25:57;;;;;;;48.88;35.30;;;179.50;2252.80;;;;;;4773555;30;20029;-80
2021/01/30 02:29:07;;;;;;;53.10;33.90;;;179.40;2252.80;;;;;;4637610;30;20023;-79
2021/01/30 02:32:12;;;;;;;41.30;30.98;;;179.30;2252.80;;;;;;4649900;31;20049;-79
2021/01/30 02:34:59;;;;;;;38.08;28.88;;;179.30;2252.80;;;;;;4596354;31;20064;-77
2021/01/30 02:37:34;;;;;;;37.97;28.35;;;179.30;2252.80;;;;;;4594723;31;20060;-79
2021/01/30 02:40:24;;;;;;;43.83;26.90;;;179.30;2252.80;;;;;;4592817;31;20628;-78
2021/01/30 02:43:24;;;;;;;39.80;26.90;;;179.30;2252.80;;;;;;4617350;31;20038;-79
2021/01/30 02:46:05;;;;;;;31.02;25.08;;;179.30;2252.80;;;;;;4603844;31;20055;-78
2021/01/30 02:48:40;;;;;;;32.83;24.77;;;179.40;2252.80;;;;;;4602573;31;20051;-78
2021/01/30 02:51:12;;;;;;;29.92;23.10;;;179.40;2252.80;;;;;;4618258;31;20043;-78
2021/01/30 02:53:43;;;;;;;28.65;21.55;;;179.50;2252.80;;;;;;4622358;30;20508;-78
2021/01/30 02:56:09;;;;;;;30.92;21.63;;;179.50;2252.80;;;;;;4622301;31;20122;-78
2021/01/30 02:58:47;;;;;;;30.60;22.08;;;179.50;2252.80;;;;;;4620560;30;20076;-78
2021/01/30 03:01:42;;;;;;;28.10;22.00;;;179.60;2252.80;;;;;;4645002;30;20054;-80
2021/01/30 03:05:17;;;;;;;28.33;21.38;;;179.60;2252.80;;;;;;4741759;29;20015;-78
2021/01/30 03:08:23;;;;;;;25.63;19.27;;;179.60;2252.80;;;;;;4828427;29;20015;-80
2021/01/30 03:11:48;;;;;;;26.95;20.83;;;179.60;2252.80;;;;;;4828344;29;20019;-79
2021/01/30 03:15:07;;;;;;;26.65;20.83;;;179.60;2252.80;;;;;;4829296;29;20069;-79
2021/01/30 03:17:59;;;;;;;25.73;20.77;;;179.60;2252.80;;;;;;4823445;29;20047;-79
2021/01/30 03:21:10;;;;;;;26.48;20.83;;;179.70;2252.80;;;;;;4829006;29;20079;-80
2021/01/30 03:24:38;;;;;;;28.38;21.48;;;179.70;2252.80;;;;;;4791750;29;20044;-80
2021/01/30 03:27:48;;;;;;;28.40;23.15;;;179.70;2252.80;;;;;;4777732;30;20039;-80
2021/01/30 03:33:47;;;;;;;26.67;18.85;;;179.70;2252.80;;;;;;4687745;30;19975;-79
2021/01/30 03:36:48;;;;;;;20.38;16.73;;;179.70;2252.80;;;;;;4660833;30;20113;-80
2021/01/30 03:40:04;;;;;;;21.50;16.70;;;179.80;2252.80;;;;;;4637001;31;20115;-80
2021/01/30 03:43:41;;;;;;;23.30;16.85;;;179.80;2252.80;;;;;;4634441;30;20072;-82
2021/01/30 03:46:34;;;;;;;23.90;18.13;;;179.80;2252.80;;;;;;4631535;31;20131;-80
2021/01/30 03:50:07;;;;;;;21.15;16.13;;;179.80;2252.80;;;;;;4626613;31;20036;-79
2021/01/30 03:55:59;;;;;;;20.98;17.17;;;179.90;2252.80;;;;;;4572596;31;20055;-79
2021/01/30 03:59:12;;;;;;;22.42;17.15;;;179.80;2252.80;;;;;;4603699;31;20036;-79
2021/01/30 04:01:42;;;;;;;23.80;16.35;;;179.90;2252.80;;;;;;4582557;31;20044;-78
2021/01/30 04:04:11;;;;;;;22.92;15.70;;;179.80;2252.80;;;;;;4597480;31;20045;-78
2021/01/30 04:06:38;;;;;;;23.00;16.88;;;179.80;2252.80;;;;;;4600114;31;20051;-78
2021/01/30 04:09:06;;;;;;;22.35;17.25;;;179.70;2252.80;;;;;;4596539;30;20052;-77
2021/01/30 04:11:33;;;;;;;22.33;16.38;;;179.80;2252.80;;;;;;4638805;30;20062;-78
2021/01/30 04:14:18;;;;;;;23.17;16.92;;;179.80;2252.80;;;;;;4647451;30;20039;-78
2021/01/30 04:16:47;;;;;;;23.55;17.38;;;179.80;2252.80;;;;;;4706742;30;20045;-78
2021/01/30 04:19:30;;;;;;;20.55;15.95;;;179.80;2252.80;;;;;;4737080;30;20076;-79
2021/01/30 04:21:56;;;;;;;22.15;16.38;;;179.90;2252.80;;;;;;4734629;30;20067;-78
2021/01/30 04:24:22;;;;;;;20.95;16.20;;;179.80;2252.80;;;;;;4698654;30;20095;-78
2021/01/30 04:27:33;;;;;;;19.10;15.27;;;179.80;2252.80;;;;;;4719001;30;20097;-80
2021/01/30 04:30:31;;;;;;;19.67;15.38;;;179.80;2252.80;;;;;;4788933;29;20031;-79
2021/01/30 04:33:39;;;;;;;20.67;16.08;;;179.80;2252.80;;;;;;4749226;30;20048;-79
2021/01/30 04:50:11;;;;;;;24.87;18.30;;;179.50;2252.80;;;;;;5268390;23;20070;-79
2021/01/30 04:53:25;;;;;;;24.80;19.75;;;179.60;2252.80;;;;;;4780741;30;20083;-79
2021/01/30 04:56:48;;;;;;;24.90;20.25;;;179.60;2252.80;;;;;;4739084;30;20045;-79
2021/01/30 04:59:53;;;;;;;24.27;18.17;;;179.50;2252.80;;;;;;4740008;30;20044;-79
2021/01/30 05:03:27;;;;;;;33.83;21.65;;;179.50;2252.80;;;;;;4735528;30;20044;-77
2021/01/30 05:06:25;;;;;;;28.02;20.45;;;179.50;2252.80;;;;;;4719725;30;20520;-79
2021/01/30 05:09:22;;;;;;;26.45;20.05;;;179.40;2252.80;;;;;;4722852;30;20042;-80
2021/01/30 05:13:06;;;;;;;30.90;22.27;;;179.40;2252.80;;;;;;4711057;30;20052;-79
2021/01/30 06:32:58;;;;;;;30.73;21.75;;;179.70;2252.80;;;;;;4711796;27;20051;-79
2021/01/30 06:39:54;;;;;;;79.78;46.17;;;179.80;2252.80;;;;;;4737074;30;20869;-79
2021/01/30 06:42:51;;;;;;;52.05;34.00;;;179.80;2252.80;;;;;;4692710;30;20046;-79
2021/01/30 06:46:28;;;;;;;49.78;34.22;;;179.90;2252.80;;;;;;4721034;30;20090;-79
2021/01/30 06:56:34;;;;;;;20.85;16.08;;;179.90;2252.80;;;;;;5012930;24;20076;-79
2021/01/30 07:00:01;;;;;;;24.83;17.45;;;180.00;2252.80;;;;;;4791672;29;20052;-80
2021/01/30 07:03:01;;;;;;;24.92;17.30;;;180.00;2252.80;;;;;;4747181;30;20036;-80
2021/01/30 07:10:09;;;;;;;35.58;23.58;;;179.80;2252.80;;;;;;4756856;30;20096;-80
2021/01/30 07:13:22;;;;;;;36.10;24.95;;;179.80;2252.80;;;;;;4674216;30;20077;-78
2021/01/30 07:16:43;;;;;;;32.05;22.48;;;179.90;2252.80;;;;;;4690103;30;20055;-79
2021/01/30 07:20:09;;;;;;;37.20;24.27;;;180.10;2252.80;;;;;;4642431;30;20068;-79
2021/01/30 07:23:46;;;;;;;27.35;17.17;;;204.90;2252.80;;;;;;4606764;31;20061;-79
2021/01/30 07:27:00;;;;;;;23.63;14.25;;;205.10;2252.80;;;;;;4572584;31;20081;-78
2021/01/30 07:30:26;;;;;;;22.17;14.85;;;205.20;2252.80;;;;;;4558312;31;20157;-79
2021/01/30 07:36:30;;;;;;;30.33;20.07;;;205.50;2252.80;;;;;;4091175;27;20050;-80
2021/01/30 07:39:54;;;;;;;25.52;16.50;;;205.70;2252.80;;;;;;4813217;29;20051;-80
2021/01/30 08:00:59;;;;;;;36.05;23.83;;;230.80;2176.00;;;;;;4847004;29;20083;-79
2021/01/30 08:04:37;;;;;;;24.08;15.85;;;230.80;2176.00;;;;;;4841819;29;20111;-79
2021/01/30 08:14:50;;;;;;;40.40;28.15;;;231.10;2150.40;;;;;;4850890;29;20041;-79
2021/01/30 08:44:58;;;;;;;28.43;17.73;;;256.60;2022.40;;;;;;4802002;27;20074;-83
2021/01/30 08:47:55;;;;;;;28.23;18.33;;;256.50;2073.60;;;;;;4741366;30;20056;-84
2021/01/30 08:50:51;;;;;;;20.10;14.18;;;256.80;2048.00;;;;;;4740538;30;20513;-84
2021/01/30 08:53:30;;;;;;;22.70;16.20;;;282.20;1971.20;;;;;;4739493;30;20123;-85
2021/01/30 08:56:04;;;;;;;16.83;12.48;;;307.40;1971.20;;;;;;4736760;30;20047;-86
2021/01/30 08:58:32;;;;;;;19.60;15.60;;;307.60;1920.00;;;;;;4736529;30;20037;-86
2021/01/30 09:01:21;;;;;;;22.95;15.68;;;307.60;1920.00;;;;;;4736334;30;20111;-87
2021/01/30 09:03:48;;;;;;;23.02;15.05;;;307.70;1945.60;;;;;;4730516;30;20036;-86
2021/01/30 09:06:38;;;;;;;24.58;16.48;;;307.60;1920.00;;;;;;4736613;30;20032;-85
2021/01/30 09:09:22;;;;;;;126.40;77.72;;;307.60;1971.20;;;;;;4736253;30;20513;-86
2021/01/30 09:11:56;;;;;;;30.73;22.50;;;307.60;1945.60;;;;;;4736026;30;20463;-87
2021/01/30 09:14:21;;;;;;;38.92;35.53;;;307.70;1920.00;;;;;;4736592;30;20040;-86
2021/01/30 09:16:56;;;;;;;16.02;14.32;;;307.50;1971.20;;;;;;4735875;30;20102;-85
2021/01/30 09:19:40;;;;;;;14.55;10.48;;;307.60;1945.60;;;;;;4736010;30;20028;-85
2021/01/30 09:22:18;;;;;;;20.52;14.02;;;332.80;1920.00;;;;;;4781241;29;20803;-85
2021/01/30 09:25:17;;;;;;;16.17;12.18;;;333.20;1868.80;;;;;;4790208;29;20091;-87
2021/01/30 09:27:54;;;;;;;13.68;10.23;;;333.50;1817.60;;;;;;4789217;29;20039;-85
2021/01/30 09:30:38;;;;;;;11.43;9.00;;;358.50;1792.00;;;;;;4790087;29;20031;-85
2021/01/30 09:33:32;;;;;;;10.85;7.90;;;358.90;1740.80;;;;;;4789748;29;20077;-86
2021/01/30 09:36:26;;;;;;;13.52;9.52;;;384.00;1664.00;;;;;;4789982;29;20509;-83
2021/01/30 09:38:59;;;;;;;12.48;9.57;;;384.50;1612.80;;;;;;4735801;30;20079;-83
2021/01/30 09:41:30;;;;;;;10.80;8.48;;;384.20;1638.40;;;;;;4750552;30;20115;-82
2021/01/30 09:44:03;;;;;;;12.73;10.20;;;359.10;1689.60;;;;;;4750334;30;20052;-82
2021/01/30 09:46:34;;;;;;;15.32;8.55;;;359.10;1689.60;;;;;;4735616;30;20401;-83
2021/01/30 09:49:04;;;;;;;13.88;9.68;;;358.80;1689.60;;;;;;4750719;29;20035;-82
2021/01/30 09:51:30;;;;;;;12.30;8.55;;;359.00;1689.60;;;;;;4750538;30;20689;-82
2021/01/30 09:54:00;;;;;;;10.77;6.85;;;359.10;1689.60;;;;;;4750371;30;20128;-83
2021/01/30 09:56:33;;;;;;;10.02;5.57;;;358.90;1689.60;;;;;;4750671;30;20051;-83
2021/01/30 09:59:00;;;;;;;11.82;6.95;;;358.70;1689.60;;;;;;4735480;30;20452;-83
2021/01/30 10:01:37;;;;;;;11.13;6.75;;;359.10;1715.20;;;;;;4750572;30;20032;-83
2021/01/30 10:04:19;;;;;;;8.40;5.95;;;384.10;1587.20;;;;;;4735619;30;20428;-83
2021/01/30 10:06:46;;;;;;;7.30;5.88;;;359.30;1638.40;;;;;;4749679;30;20032;-82
2021/01/30 10:09:23;;;;;;;13.50;8.95;;;359.00;1638.40;;;;;;4750355;30;20036;-82
2021/01/30 10:11:55;;;;;;;17.35;9.82;;;384.00;1638.40;;;;;;4749838;30;20064;-83
2021/01/30 10:14:26;;;;;;;14.85;8.57;;;384.00;1638.40;;;;;;4749811;30;20448;-82
2021/01/30 10:17:02;;;;;;;14.27;7.65;;;359.00;1689.60;;;;;;4803170;29;20068;-82
2021/01/30 10:19:34;;;;;;;11.32;9.02;;;358.90;1715.20;;;;;;4789316;29;20031;-82
2021/01/30 10:22:16;;;;;;;17.73;10.18;;;358.80;1715.20;;;;;;4789704;29;20023;-82
2021/01/30 10:24:43;;;;;;;14.10;9.40;;;358.80;1715.20;;;;;;4790018;29;20031;-83
2021/01/30 10:27:25;;;;;;;11.15;7.72;;;358.80;1715.20;;;;;;4789031;29;20118;-81
2021/01/30 10:29:52;;;;;;;24.02;12.52;;;358.60;1740.80;;;;;;4805540;29;20070;-79
2021/01/30 10:32:35;;;;;;;31.27;13.23;;;358.70;1715.20;;;;;;4788891;29;20038;-79
2021/01/30 10:35:05;;;;;;;14.00;9.02;;;358.80;1715.20;;;;;;4788168;29;20039;-81
2021/01/30 10:37:43;;;;;;;9.73;7.80;;;359.30;1664.00;;;;;;4805282;29;20035;-79
2021/01/30 10:40:20;;;;;;;13.52;8.80;;;359.20;1664.00;;;;;;4786546;30;20753;-80
2021/01/30 10:42:46;;;;;;;9.07;6.03;;;359.30;1664.00;;;;;;4786669;29;20043;-80
2021/01/30 10:45:28;;;;;;;10.02;7.25;;;359.20;1664.00;;;;;;4804952;29;20075;-82
2021/01/30 10:48:03;;;;;;;9.30;7.18;;;359.30;1638.40;;;;;;4787867;29;20035;-81
2021/01/30 10:50:33;;;;;;;12.15;5.70;;;384.40;1638.40;;;;;;4788302;29;20088;-81
2021/01/30 10:53:28;;;;;;;8.23;6.07;;;409.80;1561.60;;;;;;4800752;29;20093;-81
2021/01/30 10:55:54;;;;;;;8.80;5.60;;;435.30;1510.40;;;;;;4802001;29;20037;-83
2021/01/30 10:58:29;;;;;;;16.13;8.13;;;435.20;1484.80;;;;;;4798473;29;20043;-79
2021/01/30 11:01:10;;;;;;;10.97;5.90;;;435.20;1484.80;;;;;;4794897;29;20031;-78
2021/01/30 11:03:55;;;;;;;9.23;6.45;;;410.50;1484.80;;;;;;4790995;29;20035;-79
2021/01/30 11:06:42;;;;;;;6.78;5.25;;;409.90;1536.00;;;;;;4799319;29;20077;-78
2021/01/30 11:09:14;;;;;;;7.50;5.97;;;409.60;1536.00;;;;;;4788159;29;20117;-77
2021/01/30 11:11:40;;;;;;;10.82;6.53;;;435.40;1433.60;;;;;;4804529;29;20175;-78
2021/01/30 11:14:27;;;;;;;10.38;6.45;;;435.90;1433.60;;;;;;4804738;29;20105;-78
2021/01/30 11:16:55;;;;;;;13.98;7.40;;;460.80;1382.40;;;;;;4787955;29;20043;-78
2021/01/30 11:19:25;;;;;;;11.57;7.32;;;461.10;1382.40;;;;;;4804194;29;20027;-77
2021/01/30 11:22:17;;;;;;;9.52;7.07;;;486.60;1305.60;;;;;;4788304;29;20100;-77
2021/01/30 11:24:48;;;;;;;16.90;8.68;;;486.80;1331.20;;;;;;4805047;29;20046;-77
2021/01/30 11:27:32;;;;;;;13.88;8.55;;;487.30;1254.40;;;;;;4787220;29;20102;-78
2021/01/30 11:30:18;;;;;;;11.55;7.13;;;461.70;1305.60;;;;;;4788416;29;20039;-75
2021/01/30 11:32:52;;;;;;;10.80;6.28;;;486.80;1254.40;;;;;;4787569;29;20051;-78
2021/01/30 11:35:34;;;;;;;10.32;7.13;;;461.70;1331.20;;;;;;4787810;29;20031;-79
2021/01/30 11:38:04;;;;;;;11.25;7.47;;;486.70;1280.00;;;;;;4803780;29;20037;-77
2021/01/30 11:40:30;;;;;;;10.02;7.72;;;486.60;1254.40;;;;;;4788645;29;20117;-78
2021/01/30 11:42:56;;;;;;;8.18;5.68;;;512.10;1203.20;;;;;;4787074;29;20130;-78
2021/01/30 11:45:21;;;;;;;6.97;4.57;;;486.90;1228.80;;;;;;4787130;29;20038;-77
2021/01/30 11:47:47;;;;;;;10.88;6.82;;;487.30;1203.20;;;;;;4787040;29;20042;-79
2021/01/30 11:50:13;;;;;;;11.88;7.28;;;512.50;1152.00;;;;;;4796728;29;20035;-77
2021/01/30 11:52:39;;;;;;;7.40;4.97;;;512.60;1100.80;;;;;;4787367;29;20095;-77
2021/01/30 11:55:05;;;;;;;10.95;4.72;;;512.50;1126.40;;;;;;4787788;29;20031;-77
2021/01/30 11:57:31;;;;;;;9.95;5.43;;;512.20;1100.80;;;;;;4804290;29;20673;-77
2021/01/30 11:59:57;;;;;;;12.07;7.97;;;537.60;1075.20;;;;;;4784627;29;20594;-77
2021/01/30 12:02:30;;;;;;;7.07;5.60;;;512.60;1075.20;;;;;;4777938;29;20060;-77
2021/01/30 12:04:56;;;;;;;8.82;6.28;;;512.50;1100.80;;;;;;4807520;29;20023;-78
2021/01/30 12:07:22;;;;;;;10.15;6.28;;;512.50;1126.40;;;;;;4807608;29;20035;-78
2021/01/30 12:09:48;;;;;;;11.95;7.22;;;512.80;1075.20;;;;;;4807406;29;20494;-78
2021/01/30 12:12:15;;;;;;;9.52;5.65;;;537.70;1100.80;;;;;;4807622;29;20035;-77
2021/01/30 12:14:40;;;;;;;10.32;7.10;;;512.30;1100.80;;;;;;4807301;29;20058;-78
2021/01/30 12:17:07;;;;;;;6.15;4.55;;;512.70;1100.80;;;;;;4791375;29;20062;-78
2021/01/30 12:19:33;;;;;;;10.55;7.22;;;512.00;1126.40;;;;;;4791019;29;20031;-78
2021/01/30 12:21:58;;;;;;;8.45;6.57;;;512.30;1126.40;;;;;;4807661;29;20076;-77
2021/01/30 12:24:24;;;;;;;13.07;6.78;;;512.70;1100.80;;;;;;4806953;29;20035;-78
2021/01/30 12:26:51;;;;;;;17.33;9.73;;;537.60;1049.60;;;;;;4790691;29;20041;-78
2021/01/30 12:29:16;;;;;;;5.88;3.72;;;512.50;998.40;;;;;;4807617;29;20106;-78
2021/01/30 12:31:42;;;;;;;9.45;2.97;;;512.80;921.60;;;;;;4790911;29;20468;-78
2021/01/30 12:34:08;;;;;;;5.93;3.95;;;512.70;972.80;;;;;;4790888;29;20096;-78
2021/01/30 12:36:33;;;;;;;5.65;3.85;;;512.90;972.80;;;;;;4790597;29;20091;-77
2021/01/30 12:38:59;;;;;;;7.18;5.30;;;512.60;1024.00;;;;;;4791254;29;20373;-77
2021/01/30 12:41:25;;;;;;;7.53;4.13;;;487.10;1126.40;;;;;;4790605;29;20376;-79
2021/01/30 12:43:50;;;;;;;8.68;5.88;;;487.30;1126.40;;;;;;4790312;29;20047;-78
2021/01/30 12:46:17;;;;;;;8.00;4.47;;;512.20;1100.80;;;;;;4806400;29;20035;-78
2021/01/30 12:48:43;;;;;;;9.82;4.55;;;487.10;1152.00;;;;;;4807258;29;20398;-78
2021/01/30 12:51:09;;;;;;;36.75;22.95;;;486.80;1152.00;;;;;;4790871;29;20128;-78
2021/01/30 12:53:34;;;;;;;17.33;11.10;;;486.70;1177.60;;;;;;4806868;29;20106;-78
2021/01/30 12:56:00;;;;;;;22.90;15.45;;;461.70;1228.80;;;;;;4807016;29;20030;-79
2021/01/30 12:58:28;;;;;;;14.85;9.40;;;461.20;1280.00;;;;;;4790321;29;20096;-79
2021/01/30 13:00:55;;;;;;;13.10;8.82;;;435.90;1356.80;;;;;;4790387;29;20034;-79
2021/01/30 13:03:23;;;;;;;10.45;7.55;;;460.80;1356.80;;;;;;4806735;29;20026;-79
2021/01/30 13:05:50;;;;;;;11.27;8.38;;;460.80;1356.80;;;;;;4790532;29;20038;-79
2021/01/30 13:08:18;;;;;;;16.98;8.40;;;435.70;1408.00;;;;;;4806326;29;20031;-78
2021/01/30 13:10:44;;;;;;;12.40;8.60;;;435.90;1382.40;;;;;;4790055;29;20466;-78
2021/01/30 13:13:10;;;;;;;11.07;8.57;;;461.40;1356.80;;;;;;4789858;29;20107;-79
2021/01/30 13:15:38;;;;;;;16.40;11.88;;;461.40;1331.20;;;;;;4789717;29;20051;-79
2021/01/30 13:18:05;;;;;;;14.63;12.15;;;486.50;1280.00;;;;;;4806513;29;20019;-78
2021/01/30 13:20:31;;;;;;;19.92;14.35;;;461.70;1305.60;;;;;;4790121;29;20023;-79
2021/01/30 13:22:57;;;;;;;9.90;8.13;;;486.50;1280.00;;;;;;4790037;29;20041;-77
2021/01/30 13:25:23;;;;;;;14.75;8.07;;;461.20;1356.80;;;;;;4790050;29;20095;-79
2021/01/30 13:27:49;;;;;;;10.32;7.38;;;460.80;1382.40;;;;;;4806571;29;20070;-77
2021/01/30 13:30:18;;;;;;;12.57;8.40;;;435.90;1382.40;;;;;;4789878;29;20047;-81
2021/01/30 13:32:44;;;;;;;11.18;8.38;;;460.80;1408.00;;;;;;4806051;29;20033;-78
2021/01/30 13:35:16;;;;;;;11.85;8.10;;;435.90;1408.00;;;;;;4789678;29;20816;-77
2021/01/30 13:37:42;;;;;;;30.08;17.63;;;435.80;1408.00;;;;;;4789725;29;20114;-77
2021/01/30 13:40:09;;;;;;;18.55;9.88;;;436.00;1408.00;;;;;;4806046;29;20122;-76
2021/01/30 13:42:35;;;;;;;20.67;13.00;;;435.80;1433.60;;;;;;4805581;29;20057;-76
2021/01/30 13:45:01;;;;;;;13.98;9.68;;;435.90;1382.40;;;;;;4789449;29;20026;-77
2021/01/30 13:47:27;;;;;;;15.63;8.65;;;435.90;1356.80;;;;;;4789071;29;20415;-76
2021/01/30 13:49:53;;;;;;;17.33;11.60;;;435.90;1382.40;;;;;;4788216;29;20035;-78
2021/01/30 13:52:19;;;;;;;15.82;10.43;;;436.10;1382.40;;;;;;4804326;29;20077;-77
2021/01/30 13:54:45;;;;;;;12.15;8.40;;;435.90;1382.40;;;;;;4804358;29;20035;-77
2021/01/30 13:57:11;;;;;;;12.65;8.05;;;435.40;1433.60;;;;;;4803594;29;20034;-77
2021/01/30 13:59:36;;;;;;;10.65;8.52;;;410.30;1459.20;;;;;;4804206;29;20030;-77
2021/01/30 14:02:03;;;;;;;13.93;8.85;;;410.20;1484.80;;;;;;4803657;29;20073;-76
2021/01/30 14:04:29;;;;;;;12.88;8.35;;;410.00;1510.40;;;;;;4803516;29;20061;-76
2021/01/30 14:06:55;;;;;;;12.10;8.35;;;410.30;1484.80;;;;;;4805802;29;20062;-78
2021/01/30 14:09:21;;;;;;;15.80;9.55;;;410.30;1459.20;;;;;;4804982;29;20026;-78
2021/01/30 14:11:46;;;;;;;12.13;9.07;;;435.20;1459.20;;;;;;4805325;29;20030;-77
2021/01/30 14:14:14;;;;;;;12.48;8.27;;;410.10;1484.80;;;;;;4785798;30;20036;-78
2021/01/30 14:16:40;;;;;;;11.90;8.50;;;409.70;1484.80;;;;;;4771042;30;20031;-78
2021/01/30 14:19:05;;;;;;;13.05;8.25;;;409.70;1510.40;;;;;;4785962;30;20122;-77
2021/01/30 14:21:31;;;;;;;11.45;8.68;;;384.90;1510.40;;;;;;4771466;30;20027;-78
2021/01/30 14:23:57;;;;;;;13.68;9.82;;;409.60;1536.00;;;;;;4786403;29;20508;-78
2021/01/30 14:26:25;;;;;;;17.08;11.00;;;410.00;1510.40;;;;;;4770660;30;20131;-76
2021/01/30 14:28:52;;;;;;;16.45;9.93;;;409.80;1536.00;;;;;;4777649;29;20084;-79
2021/01/30 14:31:18;;;;;;;15.65;8.93;;;409.60;1536.00;;;;;;4788786;29;20038;-76
2021/01/30 14:33:44;;;;;;;11.50;8.80;;;384.50;1536.00;;;;;;4788994;29;20039;-76
2021/01/30 14:36:10;;;;;;;15.32;10.45;;;384.40;1561.60;;;;;;4804796;29;20034;-78
2021/01/30 14:38:37;;;;;;;15.40;10.88;;;384.30;1587.20;;;;;;4805530;29;20399;-77
2021/01/30 14:41:04;;;;;;;12.65;9.50;;;384.10;1587.20;;;;;;4805117;29;20027;-79
2021/01/30 14:43:29;;;;;;;14.52;10.52;;;384.00;1612.80;;;;;;4788829;29;20054;-78
2021/01/30 14:45:55;;;;;;;15.27;11.50;;;384.10;1612.80;;;;;;4789114;29;20837;-76
2021/01/30 14:48:21;;;;;;;14.80;9.18;;;384.00;1612.80;;;;;;4805435;29;20045;-78
2021/01/30 14:50:46;;;;;;;17.15;9.93;;;384.00;1612.80;;;;;;4788775;29;20119;-77
2021/01/30 14:53:12;;;;;;;18.20;11.63;;;384.00;1638.40;;;;;;4788952;29;20138;-76
2021/01/30 14:55:38;;;;;;;15.70;9.63;;;384.00;1612.80;;;;;;4788925;29;20045;-77
2021/01/30 14:58:04;;;;;;;18.33;10.85;;;384.00;1638.40;;;;;;4788664;29;20062;-78
2021/01/30 15:00:31;;;;;;;17.95;12.05;;;359.10;1664.00;;;;;;4805166;29;20082;-77
2021/01/30 15:02:56;;;;;;;15.80;10.93;;;359.10;1664.00;;;;;;4804641;29;20368;-78
2021/01/30 15:05:22;;;;;;;17.92;13.15;;;358.90;1689.60;;;;;;4805312;29;20106;-77
2021/01/30 15:07:48;;;;;;;17.05;11.57;;;358.90;1689.60;;;;;;4788386;29;20107;-77
2021/01/30 15:10:18;;;;;;;16.85;10.48;;;358.80;1689.60;;;;;;4789107;29;20081;-80
2021/01/30 15:12:44;;;;;;;16.63;12.10;;;358.70;1715.20;;;;;;4804595;29;20042;-78
2021/01/30 15:15:10;;;;;;;19.73;11.98;;;358.60;1715.20;;;;;;4805100;29;20039;-77
2021/01/30 15:17:36;;;;;;;17.00;11.25;;;358.50;1740.80;;;;;;4788529;29;20403;-78
2021/01/30 15:20:05;;;;;;;22.83;12.23;;;358.50;1740.80;;;;;;4786705;29;20026;-76
2021/01/30 15:22:30;;;;;;;20.40;14.25;;;358.40;1740.80;;;;;;4804748;29;20022;-79
2021/01/30 15:24:56;;;;;;;25.10;18.17;;;333.60;1766.40;;;;;;4787174;29;20062;-80
2021/01/30 15:27:23;;;;;;;23.38;16.23;;;333.50;1766.40;;;;;;4804608;29;20094;-81
2021/01/30 15:29:50;;;;;;;25.30;17.40;;;333.30;1792.00;;;;;;4788333;29;20083;-80
2021/01/30 15:32:15;;;;;;;18.45;14.05;;;333.20;1817.60;;;;;;4804671;29;20031;-79
2021/01/30 15:34:42;;;;;;;23.73;17.02;;;333.10;1817.60;;;;;;4805859;29;20112;-80
2021/01/30 15:37:09;;;;;;;19.58;14.68;;;333.00;1817.60;;;;;;4791596;29;20035;-81
2021/01/30 15:39:34;;;;;;;27.63;17.08;;;332.90;1843.20;;;;;;4791226;29;20031;-79
2021/01/30 15:42:00;;;;;;;27.38;17.02;;;308.10;1843.20;;;;;;4792344;29;20108;-79
2021/01/30 15:44:26;;;;;;;23.52;15.15;;;308.00;1843.20;;;;;;4809894;29;20050;-81
2021/01/30 15:46:52;;;;;;;29.88;16.65;;;307.90;1868.80;;;;;;4809427;29;20046;-83
2021/01/30 15:49:18;;;;;;;21.15;14.18;;;307.80;1868.80;;;;;;4826235;29;20035;-79
2021/01/30 15:51:51;;;;;;;16.90;11.63;;;307.80;1868.80;;;;;;4825831;29;20113;-82
2021/01/30 15:54:18;;;;;;;30.13;15.23;;;307.70;1894.40;;;;;;4809189;29;20042;-81
2021/01/30 15:56:44;;;;;;;22.48;13.27;;;307.70;1894.40;;;;;;4825704;29;20058;-81
2021/01/30 15:59:10;;;;;;;23.33;14.68;;;307.60;1894.40;;;;;;4809742;29;20106;-78
2021/01/30 16:01:38;;;;;;;31.77;17.55;;;307.60;1894.40;;;;;;4825617;29;20027;-79
2021/01/30 16:04:04;;;;;;;24.02;14.77;;;307.40;1894.40;;;;;;4809162;29;20038;-79
2021/01/30 16:06:29;;;;;;;19.42;14.60;;;307.40;1920.00;;;;;;4809200;29;20073;-81
2021/01/30 16:08:55;;;;;;;28.55;16.10;;;307.30;1920.00;;;;;;4825444;29;20054;-81
2021/01/30 16:11:21;;;;;;;23.17;16.02;;;307.20;1920.00;;;;;;4825786;29;20046;-81
2021/01/30 16:13:46;;;;;;;24.13;15.93;;;307.20;1920.00;;;;;;4809160;29;20039;-78
2021/01/30 16:16:12;;;;;;;24.27;17.75;;;282.50;1920.00;;;;;;4809412;29;20557;-80
2021/01/30 16:18:38;;;;;;;24.23;16.60;;;282.40;1920.00;;;;;;4808965;29;20129;-79
2021/01/30 16:21:04;;;;;;;30.55;18.85;;;282.40;1920.00;;;;;;4809290;29;20795;-77
2021/01/30 16:23:30;;;;;;;31.15;19.33;;;282.40;1920.00;;;;;;4824889;29;20432;-78
2021/01/30 16:25:55;;;;;;;30.75;20.80;;;282.40;1894.40;;;;;;4825261;29;20038;-77
2021/01/30 16:28:21;;;;;;;41.00;24.83;;;282.40;1920.00;;;;;;4825180;29;20031;-78
2021/01/30 16:30:47;;;;;;;36.40;23.02;;;282.30;1920.00;;;;;;4809162;29;20077;-77
2021/01/30 16:33:14;;;;;;;34.40;22.33;;;282.30;1920.00;;;;;;4808932;29;20107;-78
2021/01/30 16:35:39;;;;;;;37.25;22.10;;;282.30;1920.00;;;;;;4808721;29;20483;-78
2021/01/30 16:38:07;;;;;;;25.08;18.77;;;282.30;1920.00;;;;;;4808906;29;20040;-77
2021/01/30 16:40:35;;;;;;;33.33;23.80;;;282.20;1920.00;;;;;;4824746;29;20386;-76
2021/01/30 16:43:02;;;;;;;28.52;21.48;;;282.20;1920.00;;;;;;4824853;29;20050;-77
2021/01/30 16:45:28;;;;;;;30.33;19.35;;;282.20;1920.00;;;;;;4824546;29;20026;-76
2021/01/30 16:47:54;;;;;;;29.88;21.25;;;282.10;1920.00;;;;;;4824733;29;20049;-79
2021/01/30 16:50:21;;;;;;;28.45;20.58;;;282.10;1945.60;;;;;;4807836;29;20049;-77
2021/01/30 16:52:47;;;;;;;29.02;20.38;;;282.10;1945.60;;;;;;4808457;29;20034;-76
2021/01/30 16:55:14;;;;;;;28.33;19.48;;;282.10;1945.60;;;;;;4824497;29;20064;-76
2021/01/30 16:57:40;;;;;;;28.63;20.42;;;282.10;1945.60;;;;;;4824697;29;20031;-76
2021/01/30 17:00:11;;;;;;;36.03;22.00;;;282.00;1945.60;;;;;;4824960;29;20504;-77
2021/01/30 17:02:37;;;;;;;23.77;17.35;;;282.00;1945.60;;;;;;4808321;29;20054;-77
2021/01/30 17:05:03;;;;;;;27.63;20.00;;;282.00;1945.60;;;;;;4825077;29;20096;-77
2021/01/30 17:07:28;;;;;;;33.75;23.95;;;281.90;1945.60;;;;;;4808327;29;20090;-79
2021/01/30 17:09:54;;;;;;;26.38;21.20;;;281.80;1971.20;;;;;;4804776;29;20074;-79
2021/01/30 17:12:20;;;;;;;39.33;25.17;;;281.80;1971.20;;;;;;4790115;29;20035;-76
2021/01/30 17:14:45;;;;;;;49.05;33.15;;;281.80;1971.20;;;;;;4805517;29;20049;-77
2021/01/30 17:17:11;;;;;;;46.08;32.58;;;281.70;1971.20;;;;;;4806180;29;20062;-79
2021/01/30 17:19:37;;;;;;;40.78;28.50;;;281.60;1971.20;;;;;;4806475;29;20556;-81
2021/01/30 17:22:04;;;;;;;47.92;26.30;;;281.70;1971.20;;;;;;4789253;29;20134;-78
2021/01/30 17:24:29;;;;;;;30.92;22.55;;;281.60;1996.80;;;;;;4806622;29;20026;-81
2021/01/30 17:26:55;;;;;;;28.38;20.27;;;256.90;1971.20;;;;;;4805991;29;20490;-78
2021/01/30 17:29:21;;;;;;;28.45;21.17;;;256.90;1971.20;;;;;;4805402;29;20062;-78
2021/01/30 17:31:47;;;;;;;52.45;37.67;;;256.80;1971.20;;;;;;4789316;29;20049;-77